UATG/GUW METAR and TAF weather

Enter ICAO airport designator
Station Type Date Time Source
UATG METAR 2019/09/20 20:30 UTC NOAA

UATG 202030Z 06004MPS CAVOK 15/01 Q1012 R32/CLRD70 NOSIG RMK QFE760/1014


Station Type Date Time Source
UATG Decoded METAR 2019/09/20 20:30 UTC NOAA

Station name not available
Sep 20, 2019 - 04:30 PM EDT / 2019.09.20 2030 UTC
Wind: from the ENE (060 degrees) at 9 MPH (8 KT):0
Visibility: greater than 7 mile(s):0
Temperature: 59 F (15 C)
Dew Point: 33 F (1 C)
Relative Humidity: 38%
Pressure (altimeter): 29.88 in. Hg (1012 hPa)
ob: UATG 202030Z 06004MPS CAVOK 15/01 Q1012 R32/CLRD70 NOSIG RMK QFE760/1014
cycle: 20

Station Type Date Time Source
UATG TAF 2019/09/20 18:18 UTC NOAA

TAF UATG 201701Z 2018/2118 03007MPS 9999 SCT033CB TX18/2111Z TN10/2102Z
BECMG 2100/2102 01008G13MPS
TEMPO 2108/2112 -SHRA BKN033CB

Example: see airport list